createdAt,value
2023-05-19T00:01:31.256Z,8.45
2023-05-19T00:04:18.464Z,8.41
2023-05-19T00:07:08.383Z,8.38
2023-05-19T00:09:55.106Z,8.33
2023-05-19T00:12:42.981Z,8.29
2023-05-19T00:15:29.653Z,8.25
2023-05-19T00:18:16.823Z,8.19
2023-05-19T00:21:03.376Z,8.13
2023-05-19T00:23:50.018Z,8.04
2023-05-19T00:26:37.251Z,7.97
2023-05-19T00:29:24.530Z,7.91
2023-05-19T00:32:12.187Z,7.90
2023-05-19T00:34:59.912Z,7.90
2023-05-19T00:37:46.725Z,7.86
2023-05-19T00:40:36.293Z,7.80
2023-05-19T00:43:22.931Z,7.76
2023-05-19T00:46:11.071Z,7.73
2023-05-19T00:48:57.626Z,7.73
2023-05-19T00:51:44.319Z,7.71
2023-05-19T00:54:31.428Z,7.66
2023-05-19T00:57:18.053Z,7.64
2023-05-19T01:00:05.785Z,7.61
2023-05-19T01:02:52.622Z,7.58
2023-05-19T01:05:41.786Z,7.56
2023-05-19T01:08:31.683Z,7.56
2023-05-19T01:11:17.888Z,7.61
2023-05-19T01:14:04.380Z,7.62
2023-05-19T01:16:57.455Z,7.66
2023-05-19T01:19:56.374Z,7.68
2023-05-19T01:23:05.183Z,7.67
2023-05-19T01:25:51.652Z,7.63
2023-05-19T01:28:49.916Z,7.58
2023-05-19T01:31:38.572Z,7.54
2023-05-19T01:34:27.133Z,7.43
2023-05-19T01:37:16.267Z,7.48
2023-05-19T01:40:02.774Z,7.45
2023-05-19T01:42:54.667Z,7.41
2023-05-19T01:45:42.989Z,7.40
2023-05-19T01:48:30.738Z,7.40
2023-05-19T01:51:17.377Z,7.40
2023-05-19T01:54:03.878Z,7.39
2023-05-19T01:57:04.283Z,7.35
2023-05-19T02:00:20.544Z,7.32
2023-05-19T02:03:22.706Z,7.28
2023-05-19T02:06:37.086Z,7.22
2023-05-19T02:09:33.388Z,7.22
2023-05-19T02:12:34.619Z,7.20
2023-05-19T02:15:25.970Z,7.21
2023-05-19T02:18:14.108Z,7.16
2023-05-19T02:21:02.376Z,7.23
2023-05-19T02:23:48.963Z,7.24
2023-05-19T02:26:35.243Z,7.29
2023-05-19T02:29:23.865Z,7.29
2023-05-19T02:32:11.842Z,7.28
2023-05-19T02:35:00.191Z,7.28
2023-05-19T02:37:46.685Z,7.27
2023-05-19T02:40:34.099Z,7.27
2023-05-19T02:43:20.946Z,7.23
2023-05-19T02:46:07.488Z,7.28
2023-05-19T02:48:54.052Z,7.27
2023-05-19T02:51:40.781Z,7.26
2023-05-19T02:54:27.169Z,7.24
2023-05-19T02:57:13.739Z,7.23
2023-05-19T03:00:00.778Z,7.24
2023-05-19T03:02:47.547Z,7.28
2023-05-19T03:05:33.934Z,7.34
2023-05-19T03:08:20.791Z,7.41
2023-05-19T03:11:07.381Z,7.46
2023-05-19T03:13:53.812Z,7.49
2023-05-19T03:16:42.268Z,7.49
2023-05-19T03:19:29.277Z,7.50
2023-05-19T03:22:15.740Z,7.53
2023-05-19T03:25:02.492Z,7.56
2023-05-19T03:27:49.262Z,7.58
2023-05-19T03:30:35.716Z,7.60
2023-05-19T03:33:29.983Z,7.65
2023-05-19T03:36:17.517Z,7.71
2023-05-19T03:39:04.463Z,7.77
2023-05-19T03:41:51.401Z,7.82
2023-05-19T03:44:37.990Z,7.91
2023-05-19T03:47:24.951Z,7.99
2023-05-19T03:50:22.857Z,8.11
2023-05-19T03:53:16.220Z,8.25
2023-05-19T03:56:02.934Z,8.39
2023-05-19T03:58:50.061Z,8.50
2023-05-19T04:01:36.736Z,8.62
2023-05-19T04:04:23.654Z,8.75
2023-05-19T04:07:10.450Z,8.88
2023-05-19T04:09:57.493Z,8.97
2023-05-19T04:12:43.868Z,9.08
2023-05-19T04:15:30.370Z,9.14
2023-05-19T04:18:16.928Z,9.29
2023-05-19T04:21:03.777Z,9.41
2023-05-19T04:23:50.367Z,9.43
2023-05-19T04:26:38.443Z,9.62
2023-05-19T04:29:24.803Z,9.75
2023-05-19T04:32:11.751Z,9.83
2023-05-19T04:34:59.049Z,9.96
2023-05-19T04:37:46.382Z,10.08
2023-05-19T04:40:33.840Z,10.14
2023-05-19T04:43:22.357Z,10.28
2023-05-19T04:46:13.191Z,10.36
2023-05-19T04:49:01.365Z,10.47
2023-05-19T04:51:51.079Z,10.53
2023-05-19T04:54:41.960Z,10.61
2023-05-19T04:57:30.109Z,10.66
2023-05-19T05:00:17.432Z,10.80
2023-05-19T05:03:24.472Z,10.89
2023-05-19T05:06:11.732Z,11.02
2023-05-19T05:08:58.127Z,11.13
2023-05-19T05:11:45.169Z,11.32
2023-05-19T05:14:31.774Z,11.51
2023-05-19T05:17:19.137Z,11.71
2023-05-19T05:20:06.978Z,11.89
2023-05-19T05:22:54.145Z,12.09
2023-05-19T05:25:41.812Z,12.24
2023-05-19T05:28:28.514Z,12.50
2023-05-19T05:31:16.232Z,12.65
2023-05-19T05:34:03.153Z,12.83
2023-05-19T05:36:51.174Z,13.01
2023-05-19T05:39:38.120Z,13.11
2023-05-19T05:42:25.321Z,13.22
2023-05-19T05:45:12.915Z,13.31
2023-05-19T05:48:01.003Z,13.38
2023-05-19T05:50:49.125Z,13.42
2023-05-19T05:53:43.364Z,13.41
2023-05-19T05:56:30.791Z,13.40
2023-05-19T05:59:17.795Z,13.45
2023-05-19T06:02:05.176Z,13.50
2023-05-19T06:04:54.252Z,13.58
2023-05-19T06:07:41.659Z,13.60
2023-05-19T06:10:29.379Z,13.69
2023-05-19T06:13:18.923Z,13.73
2023-05-19T06:16:06.241Z,13.79
2023-05-19T06:18:59.045Z,13.88
2023-05-19T06:21:45.861Z,13.88
2023-05-19T06:24:32.750Z,13.87
2023-05-19T06:27:19.468Z,13.86
2023-05-19T06:30:08.797Z,13.82
2023-05-19T06:33:01.740Z,13.72
2023-05-19T06:35:48.400Z,13.77
2023-05-19T06:38:34.861Z,13.85
2023-05-19T06:41:21.968Z,13.97
2023-05-19T06:44:11.634Z,14.11
2023-05-19T06:46:58.191Z,14.32
2023-05-19T06:49:45.828Z,14.46
2023-05-19T06:52:33.268Z,14.66
2023-05-19T06:55:20.210Z,14.86
2023-05-19T06:58:08.364Z,15.00
2023-05-19T07:00:54.933Z,15.14
2023-05-19T07:03:42.575Z,15.29
2023-05-19T07:06:31.422Z,15.41
2023-05-19T07:09:18.333Z,15.48
2023-05-19T07:12:06.411Z,15.61
2023-05-19T07:14:53.687Z,15.68
2023-05-19T07:17:40.507Z,15.65
2023-05-19T07:20:28.458Z,15.72
2023-05-19T07:23:17.362Z,15.75
2023-05-19T07:26:05.761Z,15.85
2023-05-19T07:28:52.801Z,15.88
2023-05-19T07:31:39.427Z,15.86
2023-05-19T07:34:26.444Z,15.91
2023-05-19T07:37:12.709Z,15.98
2023-05-19T07:39:59.443Z,16.05
2023-05-19T07:42:46.058Z,16.15
2023-05-19T07:45:32.577Z,16.25
2023-05-19T07:48:22.503Z,16.25
2023-05-19T07:51:10.295Z,16.24
2023-05-19T07:53:57.508Z,16.25
2023-05-19T07:56:43.830Z,16.26
2023-05-19T07:59:30.491Z,16.31
2023-05-19T08:02:17.333Z,16.36
2023-05-19T08:05:04.652Z,16.41
2023-05-19T08:07:51.765Z,16.51
2023-05-19T08:10:38.309Z,16.63
2023-05-19T08:13:24.615Z,16.71
2023-05-19T08:16:10.762Z,16.80
2023-05-19T08:18:57.235Z,16.89
2023-05-19T08:21:44.741Z,16.92
2023-05-19T08:24:32.878Z,17.01
2023-05-19T08:27:19.418Z,17.14
2023-05-19T08:30:06.724Z,17.25
2023-05-19T08:32:52.967Z,17.30
2023-05-19T08:35:39.553Z,17.30
2023-05-19T08:38:26.637Z,17.35
2023-05-19T08:41:13.139Z,17.32
2023-05-19T08:43:59.806Z,17.39
2023-05-19T08:46:47.835Z,17.44
2023-05-19T08:49:42.384Z,17.47
2023-05-19T08:52:42.502Z,17.57
2023-05-19T08:55:42.156Z,17.65
2023-05-19T08:58:29.282Z,17.82
2023-05-19T09:01:19.260Z,17.95
2023-05-19T09:04:07.256Z,18.10
2023-05-19T09:06:54.190Z,18.14
2023-05-19T09:09:43.754Z,18.08
2023-05-19T09:12:30.368Z,18.07
2023-05-19T09:15:20.894Z,18.18
2023-05-19T09:18:12.666Z,18.37
2023-05-19T09:21:03.141Z,18.46
2023-05-19T09:23:50.148Z,18.74
2023-05-19T09:26:41.262Z,19.04
2023-05-19T09:29:27.861Z,19.32
2023-05-19T09:32:25.149Z,19.49
2023-05-19T09:35:17.183Z,19.77
2023-05-19T09:38:03.791Z,20.10
2023-05-19T09:40:50.068Z,20.35
2023-05-19T09:43:36.854Z,20.44
2023-05-19T09:46:29.935Z,20.62
2023-05-19T09:49:31.320Z,20.73
2023-05-19T09:52:18.312Z,20.83
2023-05-19T09:55:06.869Z,20.83
2023-05-19T09:57:56.240Z,20.90
2023-05-19T10:00:43.322Z,20.96
2023-05-19T10:03:32.583Z,20.85
2023-05-19T10:06:19.994Z,20.84
2023-05-19T10:09:06.375Z,20.87
2023-05-19T10:11:56.628Z,20.79
2023-05-19T10:14:43.349Z,20.59
2023-05-19T10:17:30.519Z,20.61
2023-05-19T10:20:17.895Z,20.54
2023-05-19T10:23:04.366Z,20.59
2023-05-19T10:25:55.456Z,20.52
2023-05-19T10:28:44.590Z,20.41
2023-05-19T10:31:34.182Z,20.38
2023-05-19T10:34:33.325Z,20.61
2023-05-19T10:37:37.762Z,20.85
2023-05-19T10:40:37.125Z,20.99
2023-05-19T10:43:54.570Z,21.09
2023-05-19T10:46:43.066Z,21.29
2023-05-19T10:49:35.572Z,21.50
2023-05-19T10:52:25.704Z,21.69
2023-05-19T10:55:17.713Z,21.76
2023-05-19T10:58:04.614Z,21.86
2023-05-19T11:01:00.697Z,21.70
2023-05-19T11:03:57.318Z,21.41
2023-05-19T11:06:51.931Z,21.17
2023-05-19T11:09:40.931Z,20.82
2023-05-19T11:12:27.957Z,20.45
2023-05-19T11:15:15.722Z,20.07
2023-05-19T11:18:04.577Z,19.67
2023-05-19T11:20:58.397Z,19.28
2023-05-19T11:23:45.227Z,18.83
2023-05-19T11:26:43.325Z,18.48
2023-05-19T11:29:32.877Z,18.24
2023-05-19T11:32:22.780Z,18.08
2023-05-19T11:35:10.267Z,17.90
2023-05-19T11:37:57.566Z,17.78
2023-05-19T11:40:44.497Z,17.73
2023-05-19T11:43:31.216Z,17.72
2023-05-19T11:46:18.083Z,17.67
2023-05-19T11:49:05.838Z,17.61
2023-05-19T11:51:52.528Z,17.55
2023-05-19T11:54:41.902Z,17.37
2023-05-19T11:57:28.507Z,17.19
2023-05-19T12:00:15.765Z,17.00
2023-05-19T12:03:02.025Z,16.78
2023-05-19T12:05:49.692Z,16.57
2023-05-19T12:08:37.540Z,16.44
2023-05-19T12:11:24.411Z,16.37
2023-05-19T12:14:12.323Z,16.26
2023-05-19T12:16:59.510Z,16.14
2023-05-19T12:19:48.061Z,16.11
2023-05-19T12:22:35.490Z,16.10
2023-05-19T12:25:23.263Z,16.17
2023-05-19T12:28:10.075Z,16.32
2023-05-19T12:30:58.534Z,16.51
2023-05-19T12:33:48.633Z,16.75
2023-05-19T12:36:35.367Z,16.99
2023-05-19T12:39:23.367Z,17.29
2023-05-19T12:42:12.458Z,17.56
2023-05-19T12:45:01.567Z,17.74
2023-05-19T12:47:51.358Z,18.00
2023-05-19T12:50:38.433Z,18.38
2023-05-19T12:53:27.648Z,18.59
2023-05-19T12:56:15.528Z,18.64
2023-05-19T12:59:02.331Z,18.73
2023-05-19T13:01:59.361Z,18.64
2023-05-19T13:04:46.244Z,18.42
2023-05-19T13:07:33.249Z,18.23
2023-05-19T13:10:20.726Z,18.07
2023-05-19T13:13:08.440Z,17.92
2023-05-19T13:15:55.675Z,17.84
2023-05-19T13:18:42.478Z,17.83
2023-05-19T13:21:28.628Z,17.80
2023-05-19T13:24:15.624Z,17.77
2023-05-19T13:27:03.292Z,17.57
2023-05-19T13:29:49.765Z,17.23
2023-05-19T13:32:36.269Z,16.97
2023-05-19T13:35:23.341Z,16.70
2023-05-19T13:38:10.826Z,16.43
2023-05-19T13:40:58.074Z,16.07
2023-05-19T13:43:44.799Z,15.85
2023-05-19T13:46:44.170Z,15.64
2023-05-19T13:49:31.611Z,15.41
2023-05-19T13:52:19.099Z,15.27
2023-05-19T13:55:07.543Z,15.15
2023-05-19T13:57:54.143Z,15.03
2023-05-19T14:00:41.591Z,14.97
2023-05-19T14:03:28.128Z,14.94
2023-05-19T14:06:14.751Z,14.93
2023-05-19T14:09:01.504Z,14.89
2023-05-19T14:11:47.891Z,14.91
2023-05-19T14:14:34.277Z,15.07
2023-05-19T14:17:21.205Z,15.31
2023-05-19T14:20:08.496Z,15.59
2023-05-19T14:22:55.592Z,15.79
2023-05-19T14:25:42.847Z,16.00
2023-05-19T14:28:29.711Z,16.12
2023-05-19T14:31:16.368Z,16.12
2023-05-19T14:34:03.185Z,15.98
2023-05-19T14:36:49.717Z,15.84
2023-05-19T14:39:36.141Z,15.76
2023-05-19T14:42:23.454Z,15.78
2023-05-19T14:45:11.213Z,15.73
2023-05-19T14:47:58.255Z,15.63
2023-05-19T14:50:44.821Z,15.56
2023-05-19T14:53:31.305Z,15.56
2023-05-19T14:56:17.936Z,15.51
2023-05-19T14:59:05.032Z,15.50
2023-05-19T15:01:51.867Z,15.52
2023-05-19T15:04:38.455Z,15.45
2023-05-19T15:07:25.603Z,15.35
2023-05-19T15:10:12.421Z,15.21
2023-05-19T15:13:00.614Z,15.05
2023-05-19T15:15:46.869Z,14.84
2023-05-19T15:18:34.231Z,14.66
2023-05-19T15:21:20.867Z,14.60
2023-05-19T15:24:07.327Z,14.54
2023-05-19T15:26:55.521Z,14.43
2023-05-19T15:29:41.896Z,14.37
2023-05-19T15:32:28.574Z,14.37
2023-05-19T15:35:15.218Z,14.39
2023-05-19T15:38:06.124Z,14.42
2023-05-19T15:40:53.518Z,14.39
2023-05-19T15:43:41.462Z,14.34
2023-05-19T15:46:28.937Z,14.42
2023-05-19T15:49:15.482Z,14.44
2023-05-19T15:52:03.155Z,14.43
2023-05-19T15:54:49.896Z,14.43
2023-05-19T15:57:36.349Z,14.44
2023-05-19T16:00:23.661Z,14.41
2023-05-19T16:03:10.485Z,14.31
2023-05-19T16:05:57.066Z,14.22
2023-05-19T16:08:43.678Z,14.15
2023-05-19T16:11:30.118Z,14.15
2023-05-19T16:14:16.811Z,14.16
2023-05-19T16:17:05.116Z,14.18
2023-05-19T16:19:51.652Z,14.18
2023-05-19T16:22:38.757Z,14.19
2023-05-19T16:25:25.957Z,14.16
2023-05-19T16:28:12.377Z,14.10
2023-05-19T16:31:00.339Z,14.03
2023-05-19T16:33:46.989Z,13.96
2023-05-19T16:36:33.478Z,13.90
2023-05-19T16:39:20.114Z,13.83
2023-05-19T16:42:07.032Z,13.80
2023-05-19T16:44:53.782Z,13.73
2023-05-19T16:47:40.735Z,13.64
2023-05-19T16:50:27.690Z,13.56
2023-05-19T16:53:14.353Z,13.49
2023-05-19T16:56:00.948Z,13.48
2023-05-19T16:58:47.410Z,13.49
2023-05-19T17:01:34.187Z,13.46
2023-05-19T17:04:21.048Z,13.44
2023-05-19T17:07:07.920Z,13.46
2023-05-19T17:09:55.973Z,13.43
2023-05-19T17:12:42.603Z,13.44
2023-05-19T17:15:29.129Z,13.41
2023-05-19T17:18:16.177Z,13.38
2023-05-19T17:21:05.033Z,13.37
2023-05-19T17:23:51.941Z,13.33
2023-05-19T17:26:39.797Z,13.38
2023-05-19T17:29:27.968Z,13.36
2023-05-19T17:32:14.501Z,13.35
2023-05-19T17:35:03.364Z,13.33
2023-05-19T17:37:50.164Z,13.24
2023-05-19T17:40:37.054Z,13.22
2023-05-19T17:43:23.730Z,13.18
2023-05-19T17:46:12.038Z,13.12
2023-05-19T17:48:59.035Z,13.10
2023-05-19T17:51:45.967Z,13.06
2023-05-19T17:54:33.027Z,13.02
2023-05-19T17:57:24.686Z,12.97
2023-05-19T18:00:12.855Z,12.92
2023-05-19T18:02:59.999Z,12.88
2023-05-19T18:05:48.162Z,12.85
2023-05-19T18:08:37.605Z,12.84
2023-05-19T18:11:24.211Z,12.82
2023-05-19T18:14:11.122Z,12.79
2023-05-19T18:16:58.288Z,12.77
2023-05-19T18:19:44.970Z,12.72
2023-05-19T18:22:31.475Z,12.69
2023-05-19T18:25:20.052Z,12.62
2023-05-19T18:28:06.541Z,12.64
2023-05-19T18:31:04.952Z,12.67
2023-05-19T18:33:51.342Z,12.67
2023-05-19T18:36:38.704Z,12.61
2023-05-19T18:39:27.299Z,12.61
2023-05-19T18:42:15.543Z,12.57
2023-05-19T18:45:01.985Z,12.55
2023-05-19T18:47:48.910Z,12.49
2023-05-19T18:50:36.564Z,12.47
2023-05-19T18:53:25.381Z,12.47
2023-05-19T18:56:12.799Z,12.44
2023-05-19T18:58:59.415Z,12.43
2023-05-19T19:01:46.035Z,12.45
2023-05-19T19:04:32.977Z,12.46
2023-05-19T19:07:19.685Z,12.46
2023-05-19T19:10:09.058Z,12.44
2023-05-19T19:12:55.354Z,12.42
2023-05-19T19:15:42.151Z,12.40
2023-05-19T19:18:28.611Z,12.38
2023-05-19T19:21:15.446Z,12.35
2023-05-19T19:24:02.173Z,12.32
2023-05-19T19:26:48.555Z,12.31
2023-05-19T19:29:35.562Z,12.28
2023-05-19T19:32:23.070Z,12.28
2023-05-19T19:35:09.721Z,12.26
2023-05-19T19:37:56.702Z,12.23
2023-05-19T19:40:43.630Z,12.22
2023-05-19T19:43:30.625Z,12.21
2023-05-19T19:46:17.150Z,12.22
2023-05-19T19:49:04.095Z,12.18
2023-05-19T19:51:51.396Z,12.18
2023-05-19T19:54:38.125Z,12.17
2023-05-19T19:57:25.570Z,12.13
2023-05-19T20:00:13.146Z,12.08
2023-05-19T20:03:04.463Z,12.04
2023-05-19T20:05:53.895Z,12.07
2023-05-19T20:08:40.527Z,12.10
2023-05-19T20:11:27.594Z,12.11
2023-05-19T20:14:13.995Z,12.11
2023-05-19T20:17:00.549Z,12.09
2023-05-19T20:19:48.324Z,12.05
2023-05-19T20:22:34.637Z,12.04
2023-05-19T20:25:21.355Z,12.04
2023-05-19T20:28:08.612Z,12.05
2023-05-19T20:30:55.307Z,12.07
2023-05-19T20:33:42.053Z,12.07
2023-05-19T20:36:29.167Z,12.07
2023-05-19T20:39:15.669Z,12.07
2023-05-19T20:42:01.950Z,12.02
2023-05-19T20:44:48.443Z,12.04
2023-05-19T20:47:35.637Z,12.05
2023-05-19T20:50:22.417Z,12.05
2023-05-19T20:53:09.368Z,12.01
2023-05-19T20:55:56.536Z,11.97
2023-05-19T20:58:43.165Z,11.95
2023-05-19T21:01:30.072Z,11.93
2023-05-19T21:04:16.580Z,11.91
2023-05-19T21:07:03.590Z,11.87
2023-05-19T21:09:51.602Z,11.92
2023-05-19T21:12:38.731Z,11.90
2023-05-19T21:15:25.290Z,11.96
2023-05-19T21:18:12.639Z,11.93
2023-05-19T21:21:02.943Z,11.91
2023-05-19T21:23:49.510Z,11.90
2023-05-19T21:26:36.085Z,11.87
2023-05-19T21:29:22.490Z,11.86
2023-05-19T21:32:09.385Z,11.81
2023-05-19T21:34:55.881Z,11.88
2023-05-19T21:37:42.251Z,11.90
2023-05-19T21:40:29.060Z,11.91
2023-05-19T21:43:16.048Z,11.89
2023-05-19T21:46:03.164Z,11.87
2023-05-19T21:48:49.735Z,11.85
2023-05-19T21:51:36.848Z,11.83
2023-05-19T21:54:23.510Z,11.83
2023-05-19T21:57:12.376Z,11.82
2023-05-19T21:59:58.959Z,11.88
2023-05-19T22:02:45.700Z,11.90
2023-05-19T22:05:35.198Z,11.90
2023-05-19T22:08:22.814Z,11.91
2023-05-19T22:11:09.555Z,11.90
2023-05-19T22:13:56.386Z,11.88
2023-05-19T22:16:43.728Z,11.86
2023-05-19T22:19:30.417Z,11.85
2023-05-19T22:22:17.452Z,11.85
2023-05-19T22:25:04.058Z,11.84
2023-05-19T22:27:50.742Z,11.83
2023-05-19T22:30:41.122Z,11.81
2023-05-19T22:33:27.967Z,11.83
2023-05-19T22:36:16.230Z,11.82
2023-05-19T22:39:02.556Z,11.80
2023-05-19T22:41:49.149Z,11.82
2023-05-19T22:44:35.825Z,11.81
2023-05-19T22:47:22.144Z,11.87
2023-05-19T22:50:10.179Z,11.88
2023-05-19T22:52:56.575Z,11.84
2023-05-19T22:55:43.190Z,11.86
2023-05-19T22:58:30.227Z,11.80
2023-05-19T23:01:17.197Z,11.78
2023-05-19T23:04:04.141Z,11.80
2023-05-19T23:06:50.975Z,11.83
2023-05-19T23:09:37.541Z,11.84
2023-05-19T23:12:24.278Z,11.85
2023-05-19T23:15:11.293Z,11.84
2023-05-19T23:17:57.928Z,11.80
2023-05-19T23:20:44.853Z,11.78
2023-05-19T23:23:31.519Z,11.79
2023-05-19T23:26:17.982Z,11.81
2023-05-19T23:29:04.667Z,11.83
2023-05-19T23:31:51.202Z,11.83
2023-05-19T23:34:38.047Z,11.83
2023-05-19T23:37:24.611Z,11.83
2023-05-19T23:40:12.065Z,11.83
2023-05-19T23:42:58.537Z,11.82
2023-05-19T23:45:45.202Z,11.83
2023-05-19T23:48:31.624Z,11.84
2023-05-19T23:51:17.963Z,11.85
2023-05-19T23:54:04.555Z,11.84
2023-05-19T23:56:51.361Z,11.83
2023-05-19T23:59:37.791Z,11.82
